Provincetown, MA (02657)

9:07 AM EDT on August 25, 2016 (GMT -0400)
Provincetown Center | | Change Station

Elev 33 ft 42.06 °N, 70.18 °W | Updated 7 minutes ago

Clear
Clear
77.0 °F
Feels Like 79 °F
N
3.7
Wind Variable Wind from SSW

Today
High -- | Low -- °F
--% Chance of Precip.
Yesterday
High -- | Low -- °F
Precip. -- in
Pressure 30.13 in
Visibility 10.0 miles
Clouds Clear
Heat Index 79 °F
Dew Point 66 °F
Humidity 68%
Rainfall 0.00 in
Snow Depth Not available.
5:59 AM 7:25 PM
Last Quarter, 46% visible
METAR KPVC 251256Z AUTO 21011KT 10SM CLR 23/20 A3013 RMK AO2 SLP202 T02330200
Pressure 30.13 in
Visibility 10.0 miles
Clouds Clear
Heat Index 79 °F
Dew Point 66 °F
Humidity 68%
Rainfall 0.00 in
Snow Depth Not available.
5:59 AM 7:25 PM
Last Quarter, 46% visible
METAR KPVC 251256Z AUTO 21011KT 10SM CLR 23/20 A3013 RMK AO2 SLP202 T02330200

10-Day Weather Forecast

Almanac

Astronomy

Aug. 25, 2016 Rise Set
Actual Time
Civil Twilight
Nautical Twilight
Astronomical Twilight
Moon
Length of Visible Light
Length of Day
Tomorrow will be .
, % of the Moon is Illuminated

Today's Extremes

State Highs State Lows

Community

WunderPhotos

Upload Photos

1,934,837 photos uploaded!

WunderBlog® & News

Nearby

Air Quality

  Air Quality AQ Index Pollutant
Not available.

Snow Depth

Station Depth Elevation

Earthquake Activity

City Distance Mag. Time & Date
Minimum magnitude displayed is 2.5.

Coastal Water Temperatures

Place Temperature

Stations

Nearby Weather Stations

Station Location Temp. Windchill Dew Point Humidity Wind Precip. Elev Updated Type
                   

Watches & Warnings

There are currently no watches in effect.